createdAt,value
2018-12-12T00:02:01.322Z,24.02
2018-12-12T00:04:28.811Z,33.83
2018-12-12T00:06:56.244Z,28.77
2018-12-12T00:09:23.653Z,28.02
2018-12-12T00:11:51.057Z,30.10
2018-12-12T00:14:18.463Z,23.55
2018-12-12T00:16:45.873Z,32.95
2018-12-12T00:19:13.330Z,23.57
2018-12-12T00:21:40.728Z,27.37
2018-12-12T00:24:08.130Z,24.55
2018-12-12T00:26:35.586Z,38.28
2018-12-12T00:29:03.027Z,27.07
2018-12-12T00:31:30.437Z,27.37
2018-12-12T00:33:57.824Z,23.20
2018-12-12T00:36:25.345Z,20.65
2018-12-12T00:38:52.740Z,27.15
2018-12-12T00:41:20.184Z,30.20
2018-12-12T00:43:47.601Z,25.70
2018-12-12T00:46:14.997Z,26.80
2018-12-12T00:48:42.408Z,23.45
2018-12-12T00:51:09.811Z,23.95
2018-12-12T00:53:37.211Z,31.97
2018-12-12T00:56:04.657Z,31.57
2018-12-12T00:58:32.048Z,34.85
2018-12-12T01:00:59.459Z,32.13
2018-12-12T01:03:26.947Z,28.12
2018-12-12T01:05:54.358Z,26.40
2018-12-12T01:08:21.752Z,26.33
2018-12-12T01:10:51.139Z,28.05
2018-12-12T01:13:18.544Z,20.57
2018-12-12T01:15:45.944Z,27.42
2018-12-12T01:18:13.352Z,29.67
2018-12-12T01:20:40.747Z,23.25
2018-12-12T01:23:08.161Z,37.33
2018-12-12T01:25:35.559Z,24.67
2018-12-12T01:28:03.085Z,21.62
2018-12-12T01:30:30.483Z,22.37
2018-12-12T01:32:57.880Z,28.32
2018-12-12T01:35:25.286Z,27.30
2018-12-12T01:37:52.691Z,36.30
2018-12-12T01:40:20.092Z,26.70
2018-12-12T01:42:47.493Z,25.90
2018-12-12T01:45:14.942Z,32.15
2018-12-12T01:47:42.338Z,30.72
2018-12-12T01:50:09.756Z,36.03
2018-12-12T01:52:37.757Z,34.00
2018-12-12T01:55:05.205Z,44.53
2018-12-12T01:57:32.596Z,29.50
2018-12-12T02:00:00.001Z,36.85
2018-12-12T02:02:27.404Z,38.48
2018-12-12T02:04:54.816Z,45.88
2018-12-12T02:07:22.204Z,45.78
2018-12-12T02:09:49.600Z,41.05
2018-12-12T02:12:16.993Z,34.33
2018-12-12T02:14:44.395Z,42.88
2018-12-12T02:17:11.850Z,43.45
2018-12-12T02:19:39.309Z,34.45
2018-12-12T02:22:06.772Z,47.45
2018-12-12T02:24:34.165Z,36.40
2018-12-12T02:27:01.578Z,37.73
2018-12-12T02:29:29.020Z,37.78
2018-12-12T02:31:56.430Z,49.80
2018-12-12T02:34:23.823Z,50.60
2018-12-12T02:36:51.221Z,38.05
2018-12-12T02:39:18.628Z,53.23
2018-12-12T02:41:46.019Z,45.20
2018-12-12T02:44:13.429Z,53.42
2018-12-12T02:46:40.870Z,42.15
2018-12-12T02:49:08.283Z,39.13
2018-12-12T02:51:35.681Z,56.37
2018-12-12T02:54:03.116Z,41.25
2018-12-12T02:56:30.528Z,50.60
2018-12-12T02:58:57.924Z,53.70
2018-12-12T03:01:25.373Z,49.13
2018-12-12T03:03:53.226Z,39.40
2018-12-12T03:06:20.619Z,47.55
2018-12-12T03:08:48.034Z,47.98
2018-12-12T03:11:17.444Z,47.20
2018-12-12T03:13:44.857Z,39.65
2018-12-12T03:16:12.249Z,38.55
2018-12-12T03:18:39.647Z,43.30
2018-12-12T03:21:07.056Z,34.23
2018-12-12T03:23:34.460Z,38.88
2018-12-12T03:26:01.863Z,42.95
2018-12-12T03:28:29.546Z,45.45
2018-12-12T03:30:56.950Z,38.55
2018-12-12T03:33:24.348Z,45.03
2018-12-12T03:35:51.761Z,46.15
2018-12-12T03:38:19.169Z,39.50
2018-12-12T03:40:46.821Z,45.08
2018-12-12T03:43:14.219Z,31.30
2018-12-12T03:45:41.635Z,39.05
2018-12-12T03:48:09.124Z,35.85
2018-12-12T03:50:36.525Z,36.77
2018-12-12T03:53:04.020Z,42.10
2018-12-12T03:55:31.409Z,34.27
2018-12-12T03:57:59.100Z,34.43
2018-12-12T04:00:26.496Z,37.13
2018-12-12T04:02:53.898Z,31.30
2018-12-12T04:05:21.313Z,40.43
2018-12-12T04:07:48.715Z,34.80
2018-12-12T04:10:16.164Z,43.52
2018-12-12T04:12:43.604Z,36.05
2018-12-12T04:15:11.013Z,46.55
2018-12-12T04:17:38.555Z,37.70
2018-12-12T04:20:06.247Z,39.38
2018-12-12T04:22:33.984Z,40.95
2018-12-12T04:25:01.740Z,44.63
2018-12-12T04:27:29.145Z,40.10
2018-12-12T04:29:56.620Z,38.73
2018-12-12T04:32:24.019Z,37.55
2018-12-12T04:34:51.419Z,32.65
2018-12-12T04:37:18.828Z,40.35
2018-12-12T04:39:46.232Z,39.67
2018-12-12T04:42:13.715Z,38.15
2018-12-12T04:44:41.109Z,44.03
2018-12-12T04:47:08.504Z,42.90
2018-12-12T04:49:35.918Z,34.55
2018-12-12T04:52:03.365Z,41.77
2018-12-12T04:54:30.760Z,38.13
2018-12-12T04:56:58.170Z,36.35
2018-12-12T04:59:25.741Z,37.38
2018-12-12T05:01:53.204Z,45.73
2018-12-12T05:04:20.732Z,36.85
2018-12-12T05:06:48.108Z,36.50
2018-12-12T05:09:15.500Z,40.15
2018-12-12T05:11:42.959Z,46.05
2018-12-12T05:16:45.909Z,31.42
2018-12-12T05:19:13.301Z,43.83
2018-12-12T05:21:40.721Z,34.98
2018-12-12T05:24:08.120Z,46.25
2018-12-12T05:26:35.532Z,36.48
2018-12-12T05:29:02.937Z,35.75
2018-12-12T05:31:30.445Z,37.05
2018-12-12T05:33:57.894Z,35.33
2018-12-12T05:36:25.334Z,52.10
2018-12-12T05:38:52.876Z,38.75
2018-12-12T05:41:20.320Z,35.25
2018-12-12T05:43:47.716Z,39.75
2018-12-12T05:46:15.168Z,35.28
2018-12-12T05:48:42.565Z,48.50
2018-12-12T05:51:10.021Z,53.15
2018-12-12T05:53:37.416Z,40.43
2018-12-12T05:56:04.902Z,38.25
2018-12-12T05:58:32.294Z,36.10
2018-12-12T06:00:59.696Z,42.03
2018-12-12T06:03:27.109Z,46.68
2018-12-12T06:05:54.512Z,54.58
2018-12-12T06:08:21.906Z,51.42
2018-12-12T06:10:49.300Z,41.05
2018-12-12T06:13:16.781Z,37.83
2018-12-12T06:15:44.181Z,34.23
2018-12-12T06:18:11.592Z,38.25
2018-12-12T06:20:38.993Z,43.13
2018-12-12T06:23:06.398Z,51.20
2018-12-12T06:25:33.790Z,42.83
2018-12-12T06:28:01.191Z,42.98
2018-12-12T06:30:29.156Z,34.33
2018-12-12T06:32:56.547Z,44.20
2018-12-12T06:35:23.941Z,34.63
2018-12-12T06:37:51.332Z,41.18
2018-12-12T06:40:18.733Z,37.45
2018-12-12T06:42:46.141Z,38.95
2018-12-12T06:45:13.579Z,43.30
2018-12-12T06:47:40.969Z,32.90
2018-12-12T06:50:08.412Z,32.60
2018-12-12T06:52:35.816Z,42.25
2018-12-12T06:55:03.376Z,42.58
2018-12-12T06:57:30.773Z,29.98
2018-12-12T06:59:58.207Z,35.83
2018-12-12T07:02:25.609Z,39.78
2018-12-12T07:04:53.058Z,35.65
2018-12-12T07:07:20.720Z,40.85
2018-12-12T07:09:48.109Z,47.55
2018-12-12T07:12:15.544Z,42.17
2018-12-12T07:14:42.940Z,42.05
2018-12-12T07:17:10.340Z,41.37
2018-12-12T07:19:37.782Z,35.25
2018-12-12T07:22:05.223Z,43.05
2018-12-12T07:24:32.628Z,57.58
2018-12-12T07:27:00.051Z,60.88
2018-12-12T07:29:27.454Z,56.48
2018-12-12T07:31:54.860Z,64.20
2018-12-12T07:34:22.274Z,62.80
2018-12-12T07:36:49.648Z,54.95
2018-12-12T07:39:18.061Z,49.15
2018-12-12T07:41:45.772Z,44.13
2018-12-12T07:44:13.188Z,45.90
2018-12-12T07:46:40.584Z,47.48
2018-12-12T07:49:08.021Z,55.00
2018-12-12T07:51:35.417Z,52.85
2018-12-12T07:54:02.860Z,45.67
2018-12-12T07:56:30.272Z,53.50
2018-12-12T07:58:57.669Z,51.10
2018-12-12T08:01:25.054Z,50.63
2018-12-12T08:03:52.601Z,42.62
2018-12-12T08:06:20.004Z,46.63
2018-12-12T08:08:47.416Z,50.78
2018-12-12T08:11:14.819Z,53.20
2018-12-12T08:13:42.265Z,51.65
2018-12-12T08:16:09.684Z,56.30
2018-12-12T08:18:37.229Z,63.73
2018-12-12T08:21:04.632Z,62.62
2018-12-12T08:23:32.084Z,57.70
2018-12-12T08:25:59.544Z,52.88
2018-12-12T08:28:26.958Z,54.45
2018-12-12T08:30:54.348Z,52.25
2018-12-12T08:33:21.742Z,65.83
2018-12-12T08:35:49.240Z,63.15
2018-12-12T08:38:16.653Z,65.95
2018-12-12T08:40:44.085Z,68.42
2018-12-12T08:43:11.492Z,82.33
2018-12-12T08:45:38.897Z,63.08
2018-12-12T08:48:06.297Z,55.88
2018-12-12T08:50:33.703Z,86.12
2018-12-12T08:53:01.112Z,72.32
2018-12-12T08:55:28.528Z,83.92
2018-12-12T08:57:55.921Z,67.95
2018-12-12T09:00:23.405Z,45.55
2018-12-12T09:02:50.816Z,55.92
2018-12-12T09:05:18.283Z,65.05
2018-12-12T09:07:45.683Z,87.97
2018-12-12T09:10:13.069Z,77.80
2018-12-12T09:12:40.508Z,64.87
2018-12-12T09:15:08.014Z,80.42
2018-12-12T09:17:35.433Z,67.40
2018-12-12T09:20:03.549Z,73.97
2018-12-12T09:22:30.945Z,90.75
2018-12-12T09:24:58.340Z,70.50
2018-12-12T09:27:25.753Z,76.90
2018-12-12T09:29:53.158Z,82.97
2018-12-12T09:32:20.600Z,79.92
2018-12-12T09:34:48.000Z,67.67
2018-12-12T09:37:15.397Z,71.12
2018-12-12T09:39:42.815Z,93.92
2018-12-12T09:42:10.212Z,78.78
2018-12-12T09:44:37.608Z,88.92
2018-12-12T09:47:05.122Z,104.75
2018-12-12T09:49:32.532Z,100.10
2018-12-12T09:51:59.923Z,89.70
2018-12-12T09:54:27.326Z,110.42
2018-12-12T09:56:54.725Z,74.17
2018-12-12T09:59:22.141Z,91.22
2018-12-12T10:01:49.541Z,83.42
2018-12-12T10:04:16.942Z,74.40
2018-12-12T10:06:44.327Z,87.45
2018-12-12T10:09:11.735Z,90.65
2018-12-12T10:11:39.144Z,73.75
2018-12-12T10:14:06.545Z,80.25
2018-12-12T10:16:33.991Z,76.80
2018-12-12T10:19:01.385Z,72.78
2018-12-12T10:21:28.874Z,100.78
2018-12-12T10:23:56.277Z,73.90
2018-12-12T10:26:23.694Z,83.10
2018-12-12T10:28:51.168Z,84.07
2018-12-12T10:31:18.572Z,76.10
2018-12-12T10:33:45.969Z,76.77
2018-12-12T10:36:13.380Z,84.65
2018-12-12T10:38:40.775Z,76.95
2018-12-12T10:41:08.185Z,78.83
2018-12-12T10:43:36.488Z,75.75
2018-12-12T10:46:03.959Z,88.03
2018-12-12T10:48:31.356Z,89.60
2018-12-12T10:50:58.774Z,73.15
2018-12-12T10:53:26.172Z,81.70
2018-12-12T10:55:53.576Z,86.78
2018-12-12T10:58:20.990Z,83.07
2018-12-12T11:03:59.618Z,68.40
2018-12-12T11:06:27.016Z,50.70
2018-12-12T11:08:54.434Z,51.05
2018-12-12T11:11:21.834Z,55.98
2018-12-12T11:13:49.271Z,53.33
2018-12-12T11:16:16.679Z,53.25
2018-12-12T11:18:44.181Z,57.90
2018-12-12T11:21:11.651Z,67.42
2018-12-12T11:23:39.049Z,53.58
2018-12-12T11:26:06.534Z,45.48
2018-12-12T11:28:33.925Z,49.88
2018-12-12T11:31:03.388Z,56.80
2018-12-12T11:33:30.960Z,53.95
2018-12-12T11:35:58.353Z,62.45
2018-12-12T11:38:25.773Z,64.30
2018-12-12T11:40:53.168Z,79.10
2018-12-12T11:43:20.724Z,61.55
2018-12-12T11:45:48.133Z,57.27
2018-12-12T11:48:15.577Z,49.70
2018-12-12T11:50:42.996Z,54.08
2018-12-12T11:53:10.392Z,49.45
2018-12-12T11:55:37.789Z,50.43
2018-12-12T11:58:05.200Z,54.85
2018-12-12T12:00:32.640Z,65.08
2018-12-12T12:03:00.056Z,60.85
2018-12-12T12:05:27.455Z,46.18
2018-12-12T12:07:54.909Z,49.95
2018-12-12T12:10:22.311Z,61.10
2018-12-12T12:12:50.626Z,47.08
2018-12-12T12:15:18.025Z,51.58
2018-12-12T12:17:45.433Z,47.10
2018-12-12T12:20:12.881Z,57.58
2018-12-12T12:22:40.280Z,44.15
2018-12-12T12:25:07.859Z,56.23
2018-12-12T12:27:35.269Z,49.30
2018-12-12T12:30:02.820Z,54.67
2018-12-12T12:32:30.224Z,45.83
2018-12-12T12:34:57.641Z,54.05
2018-12-12T12:37:25.045Z,49.85
2018-12-12T12:39:52.441Z,54.58
2018-12-12T12:42:19.853Z,46.15
2018-12-12T12:44:47.309Z,53.15
2018-12-12T12:47:14.717Z,48.40
2018-12-12T12:49:42.128Z,66.72
2018-12-12T12:52:09.529Z,59.23
2018-12-12T12:54:36.948Z,61.68
2018-12-12T12:57:04.374Z,52.95
2018-12-12T12:59:31.778Z,58.78
2018-12-12T13:01:59.190Z,53.65
2018-12-12T13:04:26.609Z,55.25
2018-12-12T13:06:54.017Z,56.83
2018-12-12T13:09:21.424Z,70.40
2018-12-12T13:11:48.874Z,73.35
2018-12-12T13:14:16.401Z,51.45
2018-12-12T13:16:43.968Z,52.75
2018-12-12T13:19:11.389Z,59.67
2018-12-12T13:21:39.394Z,49.08
2018-12-12T13:24:06.899Z,63.42
2018-12-12T13:26:34.408Z,48.80
2018-12-12T13:29:01.800Z,51.73
2018-12-12T13:31:29.204Z,56.15
2018-12-12T13:33:56.670Z,54.33
2018-12-12T13:36:24.060Z,52.33
2018-12-12T13:38:51.516Z,61.08
2018-12-12T13:41:18.935Z,59.75
2018-12-12T13:43:46.327Z,60.90
2018-12-12T13:46:13.732Z,59.13
2018-12-12T13:48:41.165Z,53.65
2018-12-12T13:51:08.607Z,54.40
2018-12-12T13:53:36.008Z,59.93
2018-12-12T13:56:03.421Z,55.23
2018-12-12T13:58:30.944Z,55.67
2018-12-12T14:00:58.352Z,55.30
2018-12-12T14:03:25.803Z,55.92
2018-12-12T14:05:53.206Z,50.03
2018-12-12T14:08:20.604Z,51.60
2018-12-12T14:10:48.017Z,54.83
2018-12-12T14:13:15.417Z,55.23
2018-12-12T14:15:42.812Z,57.58
2018-12-12T14:18:10.285Z,59.30
2018-12-12T14:20:37.690Z,60.23
2018-12-12T14:23:05.141Z,57.75
2018-12-12T14:25:32.560Z,65.12
2018-12-12T14:27:59.956Z,55.67
2018-12-12T14:30:28.269Z,57.33
2018-12-12T14:32:55.700Z,59.60
2018-12-12T14:35:23.096Z,51.42
2018-12-12T14:37:50.493Z,45.35
2018-12-12T14:40:17.911Z,50.45
2018-12-12T14:42:45.300Z,49.13
2018-12-12T14:45:12.740Z,54.63
2018-12-12T14:47:40.152Z,47.48
2018-12-12T14:50:07.647Z,49.73
2018-12-12T14:52:35.045Z,50.92
2018-12-12T14:55:02.457Z,41.40
2018-12-12T14:57:29.859Z,46.40
2018-12-12T14:59:57.254Z,54.88
2018-12-12T15:02:24.673Z,37.60
2018-12-12T15:04:52.081Z,50.75
2018-12-12T15:07:19.478Z,39.38
2018-12-12T15:09:46.900Z,47.17
2018-12-12T15:12:14.294Z,45.70
2018-12-12T15:14:41.749Z,51.33
2018-12-12T15:17:09.179Z,40.17
2018-12-12T15:19:36.552Z,54.77
2018-12-12T15:22:04.204Z,38.53
2018-12-12T15:24:31.628Z,47.50
2018-12-12T15:26:59.046Z,46.98
2018-12-12T15:29:26.444Z,47.30
2018-12-12T15:31:53.838Z,44.50
2018-12-12T15:34:21.248Z,49.38
2018-12-12T15:36:48.728Z,45.70
2018-12-12T15:39:16.120Z,40.15
2018-12-12T15:41:43.663Z,48.13
2018-12-12T15:44:11.065Z,48.55
2018-12-12T15:46:38.475Z,52.90
2018-12-12T15:49:05.886Z,52.35
2018-12-12T15:51:33.329Z,47.00
2018-12-12T15:54:00.740Z,34.80
2018-12-12T15:56:28.140Z,41.20
2018-12-12T15:58:55.536Z,40.17
2018-12-12T16:01:22.953Z,39.92
2018-12-12T16:03:50.350Z,40.08
2018-12-12T16:06:17.801Z,43.90
2018-12-12T16:08:45.220Z,42.73
2018-12-12T16:11:12.620Z,38.42
2018-12-12T16:13:40.015Z,46.20
2018-12-12T16:16:09.353Z,56.80
2018-12-12T16:18:36.763Z,48.68
2018-12-12T16:21:04.201Z,44.95
2018-12-12T16:23:31.608Z,61.25
2018-12-12T16:25:59.006Z,54.15
2018-12-12T16:28:26.404Z,46.08
2018-12-12T16:30:53.816Z,73.07
2018-12-12T16:33:21.224Z,49.30
2018-12-12T16:35:48.696Z,49.05
2018-12-12T16:38:16.116Z,50.33
2018-12-12T16:40:43.566Z,54.48
2018-12-12T16:43:10.964Z,62.58
2018-12-12T16:45:38.378Z,65.90
2018-12-12T16:48:05.834Z,67.17
2018-12-12T16:50:33.237Z,59.23
2018-12-12T16:53:00.652Z,49.40
2018-12-12T16:55:28.044Z,68.87
2018-12-12T16:57:55.437Z,55.95
2018-12-12T17:00:22.865Z,55.00
2018-12-12T17:02:50.276Z,58.45
2018-12-12T17:05:17.732Z,56.88
2018-12-12T17:07:45.140Z,65.00
2018-12-12T17:10:12.669Z,55.38
2018-12-12T17:12:40.896Z,60.03
2018-12-12T17:15:08.404Z,57.43
2018-12-12T17:17:35.848Z,57.33
2018-12-12T17:20:04.050Z,51.75
2018-12-12T17:22:31.477Z,50.00
2018-12-12T17:24:58.877Z,72.03
2018-12-12T17:27:26.274Z,51.80
2018-12-12T17:29:53.684Z,58.63
2018-12-12T17:32:21.087Z,52.43
2018-12-12T17:34:48.488Z,55.08
2018-12-12T17:37:15.908Z,52.20
2018-12-12T17:39:43.301Z,46.92
2018-12-12T17:42:10.722Z,52.33
2018-12-12T17:44:38.121Z,58.15
2018-12-12T17:47:05.535Z,59.08
2018-12-12T17:49:32.930Z,74.62
2018-12-12T17:52:00.325Z,55.23
2018-12-12T17:54:27.735Z,57.03
2018-12-12T17:56:55.136Z,52.67
2018-12-12T17:59:22.539Z,47.30
2018-12-12T18:01:49.988Z,52.88
2018-12-12T18:04:17.464Z,56.55
2018-12-12T18:06:44.860Z,57.78
2018-12-12T18:09:12.318Z,54.53
2018-12-12T18:11:39.711Z,52.53
2018-12-12T18:14:07.116Z,51.63
2018-12-12T18:16:34.531Z,46.85
2018-12-12T18:19:01.924Z,43.73
2018-12-12T18:21:29.321Z,51.85
2018-12-12T18:23:56.734Z,43.23
2018-12-12T18:26:24.129Z,54.50
2018-12-12T18:28:51.530Z,48.15
2018-12-12T18:31:18.940Z,45.92
2018-12-12T18:33:46.337Z,38.53
2018-12-12T18:36:13.736Z,46.77
2018-12-12T18:38:41.144Z,49.60
2018-12-12T18:41:08.638Z,33.55
2018-12-12T18:43:36.079Z,43.55
2018-12-12T18:46:03.525Z,38.35
2018-12-12T18:48:30.918Z,33.25
2018-12-12T18:50:58.346Z,34.45
2018-12-12T18:53:25.721Z,32.45
2018-12-12T18:55:53.130Z,40.40
2018-12-12T18:58:20.540Z,38.48
2018-12-12T19:00:47.932Z,35.35
2018-12-12T19:03:15.330Z,37.98
2018-12-12T19:05:42.875Z,30.10
2018-12-12T19:08:10.332Z,35.98
2018-12-12T19:10:37.739Z,34.08
2018-12-12T19:13:05.191Z,25.43
2018-12-12T19:15:32.647Z,29.60
2018-12-12T19:18:00.131Z,21.73
2018-12-12T19:20:27.611Z,24.23
2018-12-12T19:22:55.004Z,27.80
2018-12-12T19:25:22.406Z,20.50
2018-12-12T19:27:49.814Z,26.25
2018-12-12T19:30:17.223Z,22.22
2018-12-12T19:32:44.670Z,23.10
2018-12-12T19:35:12.087Z,24.52
2018-12-12T19:37:39.533Z,22.70
2018-12-12T19:40:07.372Z,20.23
2018-12-12T19:42:34.787Z,22.20
2018-12-12T19:45:02.278Z,22.32
2018-12-12T19:47:29.769Z,23.15
2018-12-12T19:49:57.184Z,23.27
2018-12-12T19:52:24.642Z,19.30
2018-12-12T19:54:52.084Z,26.05
2018-12-12T19:57:19.505Z,28.15
2018-12-12T19:59:47.003Z,26.65
2018-12-12T20:02:14.466Z,22.25
2018-12-12T20:04:41.906Z,22.70
2018-12-12T20:07:09.347Z,19.98
2018-12-12T20:09:37.839Z,22.70
2018-12-12T20:12:05.248Z,20.82
2018-12-12T20:14:32.665Z,23.65
2018-12-12T20:17:00.053Z,22.27
2018-12-12T20:19:27.630Z,31.65
2018-12-12T20:21:55.269Z,20.48
2018-12-12T20:24:22.749Z,26.87
2018-12-12T20:26:50.233Z,24.67
2018-12-12T20:29:17.680Z,23.45
2018-12-12T20:31:45.208Z,21.93
2018-12-12T20:34:12.682Z,26.02
2018-12-12T20:36:40.110Z,24.52
2018-12-12T20:39:07.649Z,27.02
2018-12-12T20:41:35.064Z,23.10
2018-12-12T20:44:02.513Z,21.05
2018-12-12T20:46:29.940Z,23.73
2018-12-12T20:48:57.447Z,18.92
2018-12-12T20:51:24.836Z,21.10
2018-12-12T20:53:52.266Z,20.55
2018-12-12T20:56:19.678Z,18.98
2018-12-12T20:58:47.062Z,24.15
2018-12-12T21:01:14.479Z,19.75
2018-12-12T21:03:41.892Z,21.25
2018-12-12T21:06:09.321Z,27.25
2018-12-12T21:08:36.740Z,21.55
2018-12-12T21:11:04.132Z,23.25
2018-12-12T21:13:31.545Z,21.02
2018-12-12T21:15:58.950Z,17.50
2018-12-12T21:18:26.360Z,23.40
2018-12-12T21:20:53.756Z,22.90
2018-12-12T21:23:21.183Z,28.77
2018-12-12T21:25:48.965Z,25.10
2018-12-12T21:28:16.349Z,30.68
2018-12-12T21:30:43.761Z,26.33
2018-12-12T21:33:11.152Z,21.07
2018-12-12T21:35:38.557Z,22.55
2018-12-12T21:38:06.017Z,24.47
2018-12-12T21:40:33.405Z,25.88
2018-12-12T21:43:00.823Z,23.98
2018-12-12T21:45:28.437Z,25.57
2018-12-12T21:47:55.886Z,27.52
2018-12-12T21:50:23.328Z,26.42
2018-12-12T21:52:50.753Z,22.15
2018-12-12T21:55:18.168Z,23.50
2018-12-12T21:57:45.564Z,23.80
2018-12-12T22:00:13.023Z,24.07
2018-12-12T22:02:40.441Z,26.95
2018-12-12T22:05:07.944Z,20.35
2018-12-12T22:07:35.417Z,27.22
2018-12-12T22:10:02.990Z,34.03
2018-12-12T22:12:30.385Z,24.82
2018-12-12T22:14:57.796Z,24.05
2018-12-12T22:17:26.098Z,25.88
2018-12-12T22:19:53.488Z,21.73
2018-12-12T22:22:20.901Z,28.98
2018-12-12T22:24:48.305Z,24.82
2018-12-12T22:27:15.700Z,28.47
2018-12-12T22:29:43.117Z,23.92
2018-12-12T22:32:10.516Z,22.37
2018-12-12T22:34:37.928Z,21.77
2018-12-12T22:37:05.338Z,23.18
2018-12-12T22:39:32.731Z,24.45
2018-12-12T22:42:00.132Z,25.12
2018-12-12T22:44:27.536Z,24.70
2018-12-12T22:46:54.970Z,25.85
2018-12-12T22:49:22.469Z,29.25
2018-12-12T22:51:49.887Z,32.28
2018-12-12T22:54:17.422Z,32.55
2018-12-12T22:56:44.866Z,29.60
2018-12-12T22:59:12.276Z,28.27
2018-12-12T23:01:39.670Z,32.63
2018-12-12T23:04:07.071Z,37.98
2018-12-12T23:06:34.484Z,30.15
2018-12-12T23:09:01.892Z,28.85
2018-12-12T23:11:29.371Z,29.95
2018-12-12T23:13:56.859Z,28.38
2018-12-12T23:16:24.259Z,28.90
2018-12-12T23:18:51.680Z,23.12
2018-12-12T23:21:19.098Z,31.20
2018-12-12T23:23:46.484Z,33.98
2018-12-12T23:26:13.893Z,28.85
2018-12-12T23:28:41.305Z,28.02
2018-12-12T23:31:08.699Z,27.13
2018-12-12T23:33:36.154Z,29.10
2018-12-12T23:36:03.566Z,31.55
2018-12-12T23:38:30.965Z,27.60
2018-12-12T23:40:58.453Z,29.30
2018-12-12T23:43:25.860Z,28.85
2018-12-12T23:45:53.250Z,27.82
2018-12-12T23:48:20.642Z,32.42
2018-12-12T23:50:48.053Z,32.48
2018-12-12T23:53:15.457Z,30.73
2018-12-12T23:55:42.860Z,31.23
2018-12-12T23:58:10.270Z,29.30
